Time;durP1;ratioP1;P1;durP2;ratioP2;P2;SDS_P1;SDS_P2;PMS_P1;PMS_P2;Temp;Humidity;BMP_temperature;BMP_pressure;BME280_temperature;BME280_humidity;BME280_pressure;Samples;Min_cycle;Max_cycle;Signal;HPM_P1;HPM_P2
2023/03/03 00:02:18;;;;;;;66.07;25.10;;;1.30;99.90;;;;;;5053116;28;20541;-44
2023/03/03 00:04:43;;;;;;;52.88;22.40;;;1.40;99.90;;;;;;5052492;28;20571;-45
2023/03/03 00:07:10;;;;;;;51.45;21.77;;;1.40;99.90;;;;;;5053447;28;20055;-48
2023/03/03 00:09:36;;;;;;;53.92;22.40;;;1.40;99.90;;;;;;5053516;28;20017;-46
2023/03/03 00:12:33;;;;;;;52.45;22.42;;;1.40;99.90;;;;;;5053259;28;20111;-45
2023/03/03 00:14:58;;;;;;;57.80;22.85;;;1.40;99.90;;;;;;5052306;28;20048;-44
2023/03/03 00:17:30;;;;;;;60.47;23.92;;;1.30;99.90;;;;;;5052873;28;20020;-47
2023/03/03 00:19:56;;;;;;;52.47;22.02;;;1.30;99.90;;;;;;5053029;28;20047;-45
2023/03/03 00:22:29;;;;;;;49.92;21.08;;;1.30;99.90;;;;;;5053180;28;20025;-45
2023/03/03 00:24:57;;;;;;;47.60;20.13;;;1.20;99.90;;;;;;5052519;28;20082;-45
2023/03/03 00:27:35;;;;;;;50.65;19.67;;;1.20;99.90;;;;;;5048233;28;20036;-45
2023/03/03 00:30:01;;;;;;;41.70;19.40;;;1.20;99.90;;;;;;5053336;28;20037;-44
2023/03/03 00:32:41;;;;;;;43.42;19.10;;;1.20;99.90;;;;;;5068250;28;20032;-44
2023/03/03 00:35:22;;;;;;;43.25;18.27;;;1.20;99.90;;;;;;5052308;28;20039;-44
2023/03/03 00:37:48;;;;;;;;;;;1.20;99.90;;;;;;5052032;28;20363;-44
2023/03/03 00:40:21;;;;;;;41.38;17.48;;;1.20;99.90;;;;;;5052698;28;19912;-44
2023/03/03 00:42:53;;;;;;;39.95;18.23;;;1.20;99.90;;;;;;5052645;28;20025;-44
2023/03/03 00:45:55;;;;;;;39.60;17.60;;;1.10;99.90;;;;;;5052054;28;20552;-45
2023/03/03 00:48:25;;;;;;;44.20;17.60;;;1.20;99.90;;;;;;4993642;28;20597;-46
2023/03/03 00:50:53;;;;;;;35.55;16.25;;;1.20;99.90;;;;;;5045921;28;20055;-45
2023/03/03 00:53:21;;;;;;;40.20;17.52;;;1.20;99.90;;;;;;5052488;28;20029;-45
2023/03/03 00:55:48;;;;;;;38.28;16.40;;;1.30;99.90;;;;;;5052404;28;20021;-44
2023/03/03 00:58:14;;;;;;;41.22;16.27;;;1.20;99.90;;;;;;5051708;28;20021;-45
2023/03/03 01:00:40;;;;;;;36.08;16.30;;;1.20;99.90;;;;;;5052821;28;20025;-44
2023/03/03 01:03:09;;;;;;;40.88;16.55;;;1.20;99.90;;;;;;5052743;28;20025;-48
2023/03/03 01:05:35;;;;;;;40.70;17.55;;;1.20;99.90;;;;;;5050660;28;20020;-46
2023/03/03 01:08:02;;;;;;;36.72;16.58;;;1.20;99.90;;;;;;5051267;28;20059;-45
2023/03/03 01:10:31;;;;;;;46.25;19.75;;;1.20;99.90;;;;;;5052611;28;20585;-45
2023/03/03 01:12:57;;;;;;;43.42;19.00;;;1.20;99.90;;;;;;5052409;28;20025;-45
2023/03/03 01:15:23;;;;;;;40.42;17.13;;;1.20;99.90;;;;;;5051979;28;20017;-46
2023/03/03 01:17:50;;;;;;;44.45;18.38;;;1.20;99.90;;;;;;5063089;28;20040;-45
2023/03/03 01:20:16;;;;;;;41.28;17.42;;;1.20;99.90;;;;;;5060842;28;20100;-45
2023/03/03 01:22:42;;;;;;;38.60;16.35;;;1.20;99.90;;;;;;5052256;28;20100;-45
2023/03/03 01:25:08;;;;;;;34.75;16.75;;;1.20;99.90;;;;;;5052435;28;20147;-44
2023/03/03 01:27:35;;;;;;;31.88;15.75;;;1.20;99.90;;;;;;5051937;28;20029;-47
2023/03/03 01:30:01;;;;;;;33.50;15.90;;;1.10;99.90;;;;;;5052488;28;20032;-45
2023/03/03 01:32:27;;;;;;;34.95;15.40;;;1.10;99.90;;;;;;5051012;28;20504;-45
2023/03/03 01:34:53;;;;;;;39.67;15.48;;;1.10;99.90;;;;;;5052106;28;20040;-45
2023/03/03 01:37:18;;;;;;;31.90;15.55;;;1.10;99.90;;;;;;5051647;28;20021;-45
2023/03/03 01:39:48;;;;;;;40.38;15.82;;;1.10;99.90;;;;;;5052054;28;20017;-44
2023/03/03 01:42:14;;;;;;;37.13;15.45;;;1.10;99.90;;;;;;5051782;28;20048;-46
2023/03/03 01:44:40;;;;;;;38.53;16.73;;;1.10;99.90;;;;;;5051442;28;20438;-45
2023/03/03 01:47:27;;;;;;;36.53;15.75;;;1.00;99.90;;;;;;5051182;28;20052;-45
2023/03/03 01:50:01;;;;;;;35.15;15.05;;;1.00;99.90;;;;;;5059631;28;20425;-45
2023/03/03 01:52:36;;;;;;;36.03;15.48;;;1.10;99.90;;;;;;5071449;28;20104;-45
2023/03/03 01:55:12;;;;;;;39.45;16.55;;;1.10;99.90;;;;;;5069792;28;20105;-45
2023/03/03 01:57:43;;;;;;;37.72;15.93;;;1.10;99.90;;;;;;5062139;28;20021;-39
2023/03/03 02:00:10;;;;;;;38.55;17.02;;;1.20;99.90;;;;;;5051269;28;20025;-39
2023/03/03 02:02:38;;;;;;;39.67;17.63;;;1.10;99.90;;;;;;5051079;28;20025;-40
2023/03/03 02:05:03;;;;;;;37.88;15.88;;;1.10;99.90;;;;;;5050978;28;20036;-39
2023/03/03 02:07:30;;;;;;;40.70;15.95;;;1.10;99.90;;;;;;5050694;28;20027;-39
2023/03/03 02:10:02;;;;;;;35.67;15.13;;;1.10;99.90;;;;;;5050581;28;20090;-39
2023/03/03 02:12:41;;;;;;;43.17;16.80;;;1.20;99.90;;;;;;5050756;28;20063;-44
2023/03/03 02:15:22;;;;;;;35.17;15.13;;;1.20;99.90;;;;;;5049198;28;20579;-39
2023/03/03 02:17:52;;;;;;;36.85;14.55;;;1.10;99.90;;;;;;5050592;28;20151;-39
2023/03/03 02:20:42;;;;;;;35.80;15.00;;;1.20;99.90;;;;;;5050715;28;20025;-39
2023/03/03 02:23:25;;;;;;;37.63;16.02;;;1.20;99.90;;;;;;5050882;28;20100;-39
2023/03/03 02:25:57;;;;;;;43.03;17.73;;;1.20;99.90;;;;;;5051056;28;20035;-39
2023/03/03 02:28:26;;;;;;;39.97;16.65;;;1.20;99.90;;;;;;5050745;28;20632;-38
2023/03/03 02:30:55;;;;;;;41.55;17.98;;;1.20;99.90;;;;;;5050911;28;20095;-39
2023/03/03 02:33:21;;;;;;;37.80;16.27;;;1.20;99.90;;;;;;5050570;28;20095;-39
2023/03/03 02:35:46;;;;;;;45.60;17.65;;;1.30;99.90;;;;;;5050937;28;20475;-40
2023/03/03 02:38:12;;;;;;;43.85;18.02;;;1.30;99.90;;;;;;5050850;28;20013;-39
2023/03/03 02:40:46;;;;;;;42.20;18.08;;;1.30;99.90;;;;;;5049141;28;20052;-39
2023/03/03 02:43:13;;;;;;;41.25;17.48;;;1.30;99.90;;;;;;5050568;28;20017;-39
2023/03/03 02:45:43;;;;;;;38.25;16.10;;;1.30;99.90;;;;;;5050699;28;20032;-39
2023/03/03 02:48:09;;;;;;;43.72;17.20;;;1.20;99.90;;;;;;5050399;28;20463;-39
2023/03/03 02:50:34;;;;;;;40.47;17.30;;;1.20;99.90;;;;;;5050106;28;20021;-39
2023/03/03 02:53:00;;;;;;;44.65;17.92;;;1.20;99.90;;;;;;5050385;28;20120;-39
2023/03/03 02:55:25;;;;;;;35.80;16.27;;;1.20;99.90;;;;;;5050123;28;20033;-39
2023/03/03 02:57:51;;;;;;;43.00;16.55;;;1.20;99.90;;;;;;5049650;28;20051;-39
2023/03/03 03:00:17;;;;;;;43.53;16.48;;;1.20;99.90;;;;;;5050026;28;20112;-39
2023/03/03 03:02:43;;;;;;;48.40;17.75;;;1.20;99.90;;;;;;5050154;28;20023;-40
2023/03/03 03:05:08;;;;;;;41.35;17.38;;;1.20;99.90;;;;;;5050009;28;20033;-39
2023/03/03 03:07:34;;;;;;;44.55;17.30;;;1.20;99.90;;;;;;5050452;28;20480;-39
2023/03/03 03:09:59;;;;;;;47.42;19.25;;;1.20;99.90;;;;;;5049518;28;20079;-39
2023/03/03 03:12:25;;;;;;;39.88;17.55;;;1.20;99.90;;;;;;5049480;28;20017;-39
2023/03/03 03:14:50;;;;;;;43.35;18.40;;;1.20;99.90;;;;;;5049732;28;20082;-39
2023/03/03 03:17:16;;;;;;;41.08;16.85;;;1.20;99.90;;;;;;5049995;28;20017;-39
2023/03/03 03:19:42;;;;;;;44.85;19.10;;;1.20;99.90;;;;;;5048938;28;20025;-39
2023/03/03 03:22:07;;;;;;;38.78;16.23;;;1.30;99.90;;;;;;5050101;28;20055;-41
2023/03/03 03:24:33;;;;;;;45.65;18.25;;;1.30;99.90;;;;;;5050052;28;20374;-38
2023/03/03 03:26:58;;;;;;;39.83;16.73;;;1.20;99.90;;;;;;5049961;28;20060;-39
2023/03/03 03:29:24;;;;;;;42.25;16.92;;;1.30;99.90;;;;;;5049801;28;20355;-39
2023/03/03 03:31:49;;;;;;;39.00;16.77;;;1.30;99.90;;;;;;5049669;28;20047;-39
2023/03/03 03:34:15;;;;;;;44.38;18.08;;;1.30;99.90;;;;;;5048307;28;20025;-39
2023/03/03 03:36:41;;;;;;;45.92;16.98;;;1.30;99.90;;;;;;5049830;28;20069;-39
2023/03/03 03:39:07;;;;;;;48.70;19.67;;;1.20;99.90;;;;;;5050246;28;20036;-39
2023/03/03 03:41:33;;;;;;;42.42;17.38;;;1.30;99.90;;;;;;5049765;28;20466;-39
2023/03/03 03:43:58;;;;;;;42.88;17.27;;;1.30;99.90;;;;;;5049279;28;20029;-39
2023/03/03 03:46:24;;;;;;;43.65;16.48;;;1.30;99.90;;;;;;5049872;28;20037;-39
2023/03/03 03:48:49;;;;;;;46.38;17.80;;;1.30;99.90;;;;;;5049531;28;20021;-39
2023/03/03 03:51:15;;;;;;;47.30;17.45;;;1.30;99.90;;;;;;5049528;28;20043;-39
2023/03/03 03:53:40;;;;;;;44.17;17.65;;;1.30;99.90;;;;;;5049500;28;20029;-39
2023/03/03 03:56:06;;;;;;;46.47;18.35;;;1.20;99.90;;;;;;5049914;28;20037;-39
2023/03/03 03:58:32;;;;;;;42.03;16.83;;;1.30;99.90;;;;;;5049575;28;20119;-40
2023/03/03 04:01:05;;;;;;;48.78;17.92;;;1.30;99.90;;;;;;5049465;28;20036;-39
2023/03/03 04:03:31;;;;;;;48.28;18.90;;;1.30;99.90;;;;;;5049082;28;20025;-39
2023/03/03 04:06:27;;;;;;;46.55;18.25;;;1.30;99.90;;;;;;5049744;28;20467;-39
2023/03/03 04:08:54;;;;;;;45.47;17.77;;;1.30;99.90;;;;;;5049920;28;20055;-39
2023/03/03 04:11:19;;;;;;;47.60;18.95;;;1.40;99.90;;;;;;5049603;28;20546;-39
2023/03/03 04:13:45;;;;;;;47.38;19.15;;;1.40;99.90;;;;;;5049110;28;20119;-39
2023/03/03 04:16:10;;;;;;;45.08;17.92;;;1.40;99.90;;;;;;5049523;28;20021;-38
2023/03/03 04:18:36;;;;;;;52.83;20.25;;;1.40;99.90;;;;;;5048197;28;20593;-39
2023/03/03 04:21:01;;;;;;;49.10;18.85;;;1.30;99.90;;;;;;5049449;28;20436;-39
2023/03/03 04:23:27;;;;;;;54.50;20.80;;;1.40;99.90;;;;;;5047941;28;20048;-39
2023/03/03 04:25:52;;;;;;;44.63;19.73;;;1.30;99.90;;;;;;5049661;28;20442;-39
2023/03/03 04:28:18;;;;;;;53.30;22.38;;;1.30;99.90;;;;;;5047828;28;20029;-39
2023/03/03 04:30:43;;;;;;;49.95;20.45;;;1.40;99.90;;;;;;5049588;28;20017;-39
2023/03/03 04:33:09;;;;;;;49.33;19.30;;;1.40;99.90;;;;;;5052519;28;20040;-39
2023/03/03 04:35:35;;;;;;;48.35;20.02;;;1.40;99.90;;;;;;5047970;28;20116;-39
2023/03/03 04:38:00;;;;;;;46.50;20.45;;;1.40;99.90;;;;;;5033316;28;20036;-39
2023/03/03 04:40:26;;;;;;;50.25;21.58;;;1.40;99.90;;;;;;5033115;28;20014;-38
2023/03/03 04:42:52;;;;;;;49.50;20.45;;;1.40;99.90;;;;;;5040513;28;20070;-38
2023/03/03 04:45:17;;;;;;;48.38;19.65;;;1.40;99.90;;;;;;5052301;28;20104;-38
2023/03/03 04:47:43;;;;;;;48.60;20.85;;;1.40;99.90;;;;;;5052850;28;20075;-38
2023/03/03 04:50:10;;;;;;;50.28;21.17;;;1.50;99.90;;;;;;5052902;28;20033;-39
2023/03/03 04:52:35;;;;;;;51.58;21.20;;;1.50;99.90;;;;;;5052443;28;20047;-39
2023/03/03 04:55:01;;;;;;;59.65;22.02;;;1.50;99.90;;;;;;5052055;28;20494;-39
2023/03/03 04:57:26;;;;;;;48.47;20.50;;;1.50;99.90;;;;;;5052503;28;20114;-39
2023/03/03 04:59:52;;;;;;;43.35;20.80;;;1.50;99.90;;;;;;5051480;28;20044;-39
2023/03/03 05:02:18;;;;;;;48.42;19.75;;;1.50;99.90;;;;;;5052303;28;20017;-39
2023/03/03 05:04:44;;;;;;;41.25;18.90;;;1.50;99.90;;;;;;5051534;28;20047;-39
2023/03/03 05:07:09;;;;;;;43.30;20.17;;;1.40;99.90;;;;;;5052345;28;20578;-39
2023/03/03 05:09:35;;;;;;;50.30;22.05;;;1.40;99.90;;;;;;5052277;28;20029;-39
2023/03/03 05:12:00;;;;;;;50.22;21.25;;;1.40;99.90;;;;;;5051966;28;20033;-40
2023/03/03 05:14:26;;;;;;;44.50;18.55;;;1.40;99.90;;;;;;5051025;28;20067;-40
2023/03/03 05:16:52;;;;;;;46.80;19.90;;;1.50;99.90;;;;;;5052133;28;20112;-39
2023/03/03 05:19:18;;;;;;;43.40;20.70;;;1.50;99.90;;;;;;5052336;28;20057;-39
2023/03/03 05:21:43;;;;;;;44.50;20.00;;;1.50;99.90;;;;;;5051579;28;20703;-39
2023/03/03 05:24:10;;;;;;;47.42;19.13;;;1.50;99.90;;;;;;5049928;28;20013;-40
2023/03/03 05:26:36;;;;;;;44.83;19.65;;;1.50;99.90;;;;;;5050280;28;20032;-40
2023/03/03 05:29:02;;;;;;;44.88;20.52;;;1.50;99.90;;;;;;5050461;28;20021;-40
2023/03/03 05:31:27;;;;;;;53.67;22.65;;;1.50;99.90;;;;;;5050676;28;20029;-37
2023/03/03 05:33:53;;;;;;;48.03;21.02;;;1.50;99.90;;;;;;5050040;28;20229;-37
2023/03/03 05:36:19;;;;;;;52.88;21.85;;;1.50;99.90;;;;;;5049754;28;20056;-38
2023/03/03 05:38:44;;;;;;;54.58;22.98;;;1.50;99.90;;;;;;5050261;28;20021;-38
2023/03/03 05:41:10;;;;;;;45.90;18.83;;;1.50;99.90;;;;;;5065650;28;20017;-37
2023/03/03 05:43:36;;;;;;;56.38;20.63;;;1.50;99.90;;;;;;5049114;28;20017;-38
2023/03/03 05:46:02;;;;;;;48.58;22.10;;;1.50;99.90;;;;;;5050866;28;20417;-39
2023/03/03 05:48:28;;;;;;;48.10;21.42;;;1.50;99.90;;;;;;5051787;28;20021;-39
2023/03/03 05:50:53;;;;;;;45.00;20.15;;;1.50;99.90;;;;;;5051827;28;20025;-39
2023/03/03 05:53:19;;;;;;;46.00;19.50;;;1.50;99.90;;;;;;5051357;28;20025;-39
2023/03/03 05:55:44;;;;;;;47.53;21.05;;;1.50;99.90;;;;;;5051375;28;20025;-39
2023/03/03 05:58:19;;;;;;;48.53;20.67;;;1.50;99.90;;;;;;5051112;28;20025;-39
2023/03/03 06:00:46;;;;;;;43.03;19.60;;;1.40;99.90;;;;;;5051831;28;20084;-38
2023/03/03 06:03:12;;;;;;;40.28;18.58;;;1.40;99.90;;;;;;5052665;28;20025;-39
2023/03/03 06:05:37;;;;;;;40.25;19.80;;;1.50;99.90;;;;;;5052987;28;20052;-39
2023/03/03 06:08:03;;;;;;;38.92;18.92;;;1.40;99.90;;;;;;5051607;28;20065;-38
2023/03/03 06:10:29;;;;;;;47.60;20.50;;;1.50;99.90;;;;;;5051615;28;20284;-38
2023/03/03 06:12:54;;;;;;;54.50;22.75;;;1.40;99.90;;;;;;5051177;28;20033;-38
2023/03/03 06:15:21;;;;;;;44.00;19.60;;;1.40;99.90;;;;;;5051565;28;20035;-38
2023/03/03 06:17:47;;;;;;;41.38;18.92;;;1.40;99.90;;;;;;5050196;28;20394;-38
2023/03/03 06:20:12;;;;;;;44.70;18.92;;;1.40;99.90;;;;;;5057019;28;20024;-38
2023/03/03 06:22:38;;;;;;;50.80;21.13;;;1.50;99.90;;;;;;5056891;28;20033;-39
2023/03/03 06:25:04;;;;;;;44.38;19.10;;;1.40;99.90;;;;;;5050965;28;20112;-39
2023/03/03 06:27:30;;;;;;;48.40;21.55;;;1.40;99.90;;;;;;5054236;28;20048;-38
2023/03/03 06:29:55;;;;;;;39.50;19.02;;;1.40;99.90;;;;;;5062320;28;20025;-38
2023/03/03 06:32:21;;;;;;;42.95;19.20;;;1.40;99.90;;;;;;5059154;28;20025;-38
2023/03/03 06:34:46;;;;;;;41.25;18.05;;;1.40;99.90;;;;;;5054919;28;20025;-38
2023/03/03 06:37:12;;;;;;;49.90;19.70;;;1.40;99.90;;;;;;5050400;28;20074;-38
2023/03/03 06:39:37;;;;;;;45.88;19.65;;;1.40;99.90;;;;;;5064314;28;20508;-38
2023/03/03 06:42:03;;;;;;;49.08;20.80;;;1.50;99.90;;;;;;5070642;28;20510;-38
2023/03/03 06:44:28;;;;;;;49.50;19.35;;;1.50;99.90;;;;;;5070276;28;20036;-38
2023/03/03 06:46:56;;;;;;;45.58;20.27;;;1.60;99.90;;;;;;5066452;28;20494;-38
2023/03/03 06:49:21;;;;;;;46.58;21.13;;;1.60;99.90;;;;;;5061948;28;20016;-38
2023/03/03 06:51:47;;;;;;;46.08;19.58;;;1.50;99.90;;;;;;5070495;28;20107;-39
2023/03/03 06:54:17;;;;;;;46.60;19.95;;;1.50;99.90;;;;;;5069572;28;20028;-39
2023/03/03 06:56:44;;;;;;;48.95;20.48;;;1.60;99.90;;;;;;5070170;28;20027;-39
2023/03/03 06:59:18;;;;;;;41.35;19.45;;;1.60;99.90;;;;;;5054690;28;20037;-39
2023/03/03 07:01:46;;;;;;;46.05;20.42;;;1.60;99.90;;;;;;5050342;28;20013;-39
2023/03/03 07:04:25;;;;;;;43.50;18.05;;;1.60;99.90;;;;;;5049832;28;20368;-39
2023/03/03 07:06:50;;;;;;;42.97;20.00;;;1.60;99.90;;;;;;5050321;28;20025;-39
2023/03/03 07:09:29;;;;;;;47.83;20.25;;;1.60;99.90;;;;;;5049917;28;20482;-39
2023/03/03 07:12:01;;;;;;;46.67;19.95;;;1.70;99.90;;;;;;5049027;28;20036;-38
2023/03/03 07:14:28;;;;;;;43.22;19.23;;;1.70;99.90;;;;;;5063069;28;20020;-40
2023/03/03 07:17:00;;;;;;;44.35;19.00;;;1.70;99.90;;;;;;5070377;28;20029;-40
2023/03/03 07:19:35;;;;;;;43.60;19.63;;;1.80;99.90;;;;;;5055378;28;20132;-40
2023/03/03 07:22:13;;;;;;;46.75;18.83;;;1.80;99.90;;;;;;5050225;28;20563;-39
2023/03/03 07:24:40;;;;;;;42.55;19.20;;;1.80;99.90;;;;;;5049777;28;20052;-39
2023/03/03 07:27:06;;;;;;;46.00;19.38;;;1.80;99.90;;;;;;5049846;28;20056;-38
2023/03/03 07:29:33;;;;;;;39.25;18.85;;;1.70;99.90;;;;;;5049876;28;20036;-38
2023/03/03 07:32:00;;;;;;;44.13;19.17;;;1.80;99.90;;;;;;5048799;28;20107;-38
2023/03/03 07:34:37;;;;;;;48.33;19.48;;;1.80;99.90;;;;;;5049603;28;20032;-38
2023/03/03 07:37:12;;;;;;;36.75;17.38;;;1.80;99.90;;;;;;5050313;28;20607;-38
2023/03/03 07:39:39;;;;;;;40.00;18.70;;;1.90;99.90;;;;;;5044322;28;20033;-38
2023/03/03 07:42:16;;;;;;;41.05;18.25;;;1.90;99.90;;;;;;5049718;28;20641;-38
2023/03/03 07:44:42;;;;;;;42.88;18.20;;;1.90;99.90;;;;;;5047786;28;20028;-39
2023/03/03 07:47:19;;;;;;;41.05;18.77;;;2.00;99.90;;;;;;5048085;28;20033;-39
2023/03/03 07:49:47;;;;;;;41.90;18.55;;;1.90;99.90;;;;;;5047639;28;20044;-42
2023/03/03 07:52:28;;;;;;;41.30;17.92;;;2.00;99.90;;;;;;5049856;28;20060;-40
2023/03/03 07:54:54;;;;;;;;;;;2.00;99.90;;;;;;5049831;28;20029;-40
2023/03/03 07:57:28;;;;;;;39.60;17.52;;;2.10;99.90;;;;;;5049568;28;19905;-40
2023/03/03 08:00:13;;;;;;;38.22;18.70;;;2.10;99.90;;;;;;5048560;28;20025;-41
2023/03/03 08:03:02;;;;;;;43.13;19.85;;;2.00;99.90;;;;;;5049393;28;20036;-40
2023/03/03 08:05:35;;;;;;;38.35;18.92;;;2.00;99.90;;;;;;5049495;28;20124;-37
2023/03/03 08:08:41;;;;;;;43.67;18.90;;;2.00;99.90;;;;;;5055965;28;20052;-40
2023/03/03 08:11:08;;;;;;;41.03;19.45;;;2.10;99.90;;;;;;5050200;28;20079;-37
2023/03/03 08:13:34;;;;;;;44.72;20.63;;;2.20;99.90;;;;;;5049081;28;20025;-38
2023/03/03 08:16:08;;;;;;;45.70;18.77;;;2.10;99.90;;;;;;5051310;28;20036;-37
2023/03/03 08:18:41;;;;;;;39.55;17.80;;;2.10;99.90;;;;;;5051958;28;20453;-37
2023/03/03 08:21:09;;;;;;;38.67;17.75;;;2.20;99.90;;;;;;5051447;28;20025;-38
2023/03/03 08:23:35;;;;;;;36.28;17.95;;;2.20;99.90;;;;;;5051122;28;20029;-38
2023/03/03 08:26:00;;;;;;;40.00;19.23;;;2.30;99.90;;;;;;5051782;28;20396;-38
2023/03/03 08:28:26;;;;;;;48.00;21.50;;;2.30;99.90;;;;;;5051728;28;20090;-38
2023/03/03 08:30:51;;;;;;;38.40;18.02;;;2.40;99.90;;;;;;5051857;28;20032;-38
2023/03/03 08:33:17;;;;;;;42.63;18.33;;;2.40;99.90;;;;;;5051392;28;20375;-39
2023/03/03 08:35:44;;;;;;;37.30;18.00;;;2.50;99.90;;;;;;5051568;28;20036;-38
2023/03/03 08:38:11;;;;;;;37.38;17.40;;;2.50;99.90;;;;;;5051470;28;20025;-38
2023/03/03 08:40:37;;;;;;;42.17;18.10;;;2.60;99.90;;;;;;5051314;28;20031;-38
2023/03/03 08:43:03;;;;;;;38.85;17.95;;;2.70;99.90;;;;;;5050199;28;20582;-38
2023/03/03 08:45:32;;;;;;;40.80;19.40;;;2.70;99.90;;;;;;5050601;28;20114;-38
2023/03/03 08:47:58;;;;;;;41.20;18.83;;;2.70;99.90;;;;;;5051278;28;20032;-38
2023/03/03 08:50:25;;;;;;;38.38;17.17;;;2.70;99.90;;;;;;5051187;28;20021;-39
2023/03/03 08:52:50;;;;;;;37.03;18.05;;;2.70;99.90;;;;;;5051134;28;20064;-39
2023/03/03 08:55:16;;;;;;;33.88;16.60;;;2.70;99.90;;;;;;5050828;28;20405;-38
2023/03/03 08:57:42;;;;;;;35.53;17.27;;;2.70;99.90;;;;;;5050324;28;20489;-39
2023/03/03 09:00:11;;;;;;;35.70;17.58;;;2.80;99.90;;;;;;5050424;28;20056;-39
2023/03/03 09:02:36;;;;;;;31.88;17.05;;;2.80;99.90;;;;;;5046143;28;20028;-38
2023/03/03 09:05:03;;;;;;;39.85;18.67;;;2.90;99.90;;;;;;5046606;28;20025;-38
2023/03/03 09:07:29;;;;;;;36.63;17.85;;;2.80;99.90;;;;;;5050817;28;20025;-38
2023/03/03 09:09:55;;;;;;;37.40;18.15;;;2.80;99.90;;;;;;5050732;28;20110;-38
2023/03/03 09:12:35;;;;;;;32.95;16.10;;;2.80;99.90;;;;;;5050448;28;20111;-38
2023/03/03 09:15:22;;;;;;;34.78;17.20;;;2.80;99.90;;;;;;5050151;28;20398;-38
2023/03/03 09:17:49;;;;;;;39.35;18.13;;;3.00;99.90;;;;;;5049136;28;20025;-38
2023/03/03 09:20:34;;;;;;;36.63;17.55;;;3.00;99.90;;;;;;5050333;28;20564;-38
2023/03/03 09:23:22;;;;;;;36.97;17.08;;;3.20;99.90;;;;;;5050661;28;20029;-37
2023/03/03 09:25:48;;;;;;;36.70;16.75;;;3.30;99.90;;;;;;5049200;28;20530;-38
2023/03/03 09:28:23;;;;;;;30.58;16.58;;;3.40;99.90;;;;;;5050516;28;20441;-38
2023/03/03 09:30:49;;;;;;;37.00;17.80;;;3.50;99.90;;;;;;5050781;28;20029;-38
2023/03/03 09:33:26;;;;;;;31.30;15.50;;;3.50;99.90;;;;;;5050611;28;20029;-37
2023/03/03 09:36:23;;;;;;;34.38;16.15;;;3.60;99.90;;;;;;5050102;28;20060;-38
2023/03/03 09:38:49;;;;;;;38.30;18.60;;;3.70;99.90;;;;;;5043397;28;20029;-38
2023/03/03 09:41:22;;;;;;;38.78;18.52;;;3.70;99.90;;;;;;5050389;28;20017;-39
2023/03/03 09:43:54;;;;;;;40.88;17.65;;;3.50;99.90;;;;;;5049646;28;20020;-39
2023/03/03 09:46:25;;;;;;;32.97;16.70;;;3.70;99.90;;;;;;5049427;28;20029;-39
2023/03/03 09:49:17;;;;;;;34.55;16.63;;;3.70;99.90;;;;;;5050159;28;20043;-39
2023/03/03 09:51:58;;;;;;;35.25;18.00;;;3.80;99.90;;;;;;5050316;28;20386;-38
2023/03/03 09:54:26;;;;;;;;;;;3.80;99.90;;;;;;5050375;28;20187;-39
2023/03/03 09:57:08;;;;;;;35.38;16.15;;;3.90;99.90;;;;;;5049020;28;20388;-39
2023/03/03 09:59:52;;;;;;;31.98;16.48;;;4.00;99.90;;;;;;5048854;28;20036;-39
2023/03/03 10:02:29;;;;;;;30.63;16.05;;;4.00;99.90;;;;;;5049588;28;20428;-39
2023/03/03 10:05:12;;;;;;;34.03;16.02;;;4.00;99.90;;;;;;5049091;28;20029;-39
2023/03/03 10:08:02;;;;;;;33.13;15.75;;;4.10;99.90;;;;;;5048961;28;20037;-39
2023/03/03 10:10:52;;;;;;;33.83;16.60;;;4.10;99.90;;;;;;5046986;28;20502;-37
2023/03/03 10:13:40;;;;;;;26.25;14.88;;;4.20;99.90;;;;;;5045417;28;20102;-39
2023/03/03 10:16:24;;;;;;;27.67;15.27;;;4.30;99.90;;;;;;5046267;28;20374;-38
2023/03/03 10:18:58;;;;;;;28.88;14.68;;;4.70;99.90;;;;;;5048905;28;20067;-38
2023/03/03 10:21:42;;;;;;;28.67;14.70;;;4.90;99.90;;;;;;5047805;28;20650;-38
2023/03/03 10:24:30;;;;;;;31.52;15.23;;;5.00;99.90;;;;;;5048142;28;20702;-38
2023/03/03 10:27:26;;;;;;;31.38;15.73;;;5.10;99.90;;;;;;5049582;28;20099;-38
2023/03/03 10:30:17;;;;;;;27.65;14.88;;;5.10;99.90;;;;;;5049356;28;20689;-38
2023/03/03 10:32:49;;;;;;;;;;;5.30;99.90;;;;;;5049434;28;20025;-38
2023/03/03 10:35:28;;;;;;;28.63;15.73;;;5.40;99.90;;;;;;5049218;28;19960;-38
2023/03/03 10:38:17;;;;;;;30.42;15.85;;;5.40;99.90;;;;;;5050884;28;20017;-38
2023/03/03 10:40:52;;;;;;;31.13;15.98;;;5.30;99.90;;;;;;5051095;28;20017;-38
2023/03/03 10:43:55;;;;;;;28.17;16.45;;;5.20;99.90;;;;;;5050178;28;20509;-38
2023/03/03 10:46:45;;;;;;;27.92;14.90;;;5.10;99.90;;;;;;5030678;28;20040;-38
2023/03/03 10:49:17;;;;;;;32.67;15.82;;;5.10;99.90;;;;;;5050645;28;20047;-39
2023/03/03 10:51:51;;;;;;;28.17;15.93;;;5.00;99.90;;;;;;5050493;28;20471;-42
2023/03/03 10:54:29;;;;;;;35.10;16.45;;;5.10;99.90;;;;;;5048492;28;20020;-38
2023/03/03 10:57:12;;;;;;;36.53;17.77;;;5.00;99.90;;;;;;5050627;28;20091;-38
2023/03/03 11:00:04;;;;;;;29.98;15.32;;;4.60;99.90;;;;;;5050388;28;20611;-38
2023/03/03 11:02:53;;;;;;;34.63;17.23;;;4.70;99.90;;;;;;5050684;28;20063;-38
2023/03/03 11:05:37;;;;;;;26.42;14.80;;;5.00;99.90;;;;;;5050015;28;20548;-38
2023/03/03 11:08:25;;;;;;;29.13;15.52;;;5.20;99.90;;;;;;5050664;28;20028;-38
2023/03/03 11:11:19;;;;;;;30.85;15.85;;;5.30;99.90;;;;;;5049253;28;21112;-38
2023/03/03 11:14:00;;;;;;;31.15;16.27;;;5.40;99.90;;;;;;5049043;28;20029;-38
2023/03/03 11:17:06;;;;;;;32.25;17.00;;;5.30;99.90;;;;;;5049035;28;20129;-38
2023/03/03 11:19:51;;;;;;;28.60;14.52;;;5.40;99.90;;;;;;5047092;28;20079;-38
2023/03/03 11:22:32;;;;;;;29.17;14.40;;;5.80;99.90;;;;;;5045490;28;20036;-38
2023/03/03 11:25:39;;;;;;;26.65;15.05;;;6.20;99.90;;;;;;5047839;28;20025;-48
2023/03/03 11:28:11;;;;;;;28.60;15.45;;;6.50;99.90;;;;;;4968010;28;20089;-38
2023/03/03 11:30:44;;;;;;;30.67;16.05;;;6.10;99.90;;;;;;4968566;28;20031;-38
2023/03/03 11:33:25;;;;;;;26.95;14.85;;;5.80;99.90;;;;;;5013129;28;20457;-38
2023/03/03 11:35:56;;;;;;;;;;;5.90;99.90;;;;;;5049271;28;20138;-38
2023/03/03 11:38:32;;;;;;;27.40;14.10;;;5.80;99.90;;;;;;5049346;28;19917;-38
2023/03/03 11:41:08;;;;;;;24.88;13.48;;;6.00;99.90;;;;;;5031137;28;20026;-38
2023/03/03 11:43:43;;;;;;;22.35;13.07;;;6.20;99.90;;;;;;5051684;28;20474;-38
2023/03/03 11:46:14;;;;;;;25.85;14.57;;;6.20;99.90;;;;;;5053501;28;20039;-38
2023/03/03 11:48:59;;;;;;;;;;;6.10;99.90;;;;;;5054452;28;20226;-38
2023/03/03 11:52:10;;;;;;;23.33;12.70;;;5.90;99.90;;;;;;5053974;28;19905;-38
2023/03/03 11:55:12;;;;;;;29.33;13.82;;;5.90;99.90;;;;;;4996887;28;20390;-38
2023/03/03 11:57:44;;;;;;;24.83;13.68;;;6.10;99.90;;;;;;5048826;28;20100;-38
2023/03/03 12:00:15;;;;;;;24.08;12.45;;;6.20;99.90;;;;;;5054292;28;20546;-38
2023/03/03 12:03:02;;;;;;;24.75;13.25;;;6.30;99.90;;;;;;5068628;28;20496;-38
2023/03/03 12:05:51;;;;;;;21.85;13.57;;;6.40;99.90;;;;;;5070437;28;20036;-39
2023/03/03 12:08:17;;;;;;;22.00;12.90;;;6.30;99.90;;;;;;5051747;28;20420;-38
2023/03/03 12:11:02;;;;;;;25.85;14.77;;;6.30;99.90;;;;;;5051637;28;20036;-38
2023/03/03 12:14:05;;;;;;;26.55;13.43;;;6.30;99.90;;;;;;5051181;28;20101;-38
2023/03/03 12:16:55;;;;;;;31.45;14.65;;;6.30;99.90;;;;;;5051453;28;20021;-39
2023/03/03 12:19:45;;;;;;;24.02;13.07;;;6.30;99.90;;;;;;5048671;28;20028;-39
2023/03/03 12:22:28;;;;;;;23.13;13.60;;;6.60;99.90;;;;;;5054145;28;20087;-39
2023/03/03 12:24:59;;;;;;;23.63;13.82;;;6.60;99.90;;;;;;5050557;28;20064;-39
2023/03/03 12:27:41;;;;;;;26.13;12.95;;;6.60;99.90;;;;;;5051163;28;20100;-38
2023/03/03 12:30:19;;;;;;;21.98;13.25;;;6.70;99.90;;;;;;5051249;28;20020;-38
2023/03/03 12:32:57;;;;;;;24.45;12.77;;;8.10;99.90;;;;;;5045890;28;20025;-38
2023/03/03 12:35:37;;;;;;;21.48;13.40;;;9.00;99.90;;;;;;5048813;28;20025;-39
2023/03/03 12:38:10;;;;;;;23.05;13.48;;;10.20;99.90;;;;;;5045980;28;20040;-38
2023/03/03 12:40:50;;;;;;;23.10;14.52;;;10.90;98.00;;;;;;5051114;28;20028;-39
2023/03/03 12:43:39;;;;;;;23.35;13.98;;;10.50;96.90;;;;;;5051501;28;20025;-39
2023/03/03 12:46:20;;;;;;;24.23;12.33;;;9.40;99.10;;;;;;5051598;28;20033;-39
2023/03/03 12:48:46;;;;;;;23.58;13.15;;;8.90;99.90;;;;;;5050706;28;20299;-39
2023/03/03 12:51:41;;;;;;;31.60;14.75;;;8.10;99.90;;;;;;5051338;28;20039;-39
2023/03/03 12:54:44;;;;;;;22.80;13.60;;;7.70;99.90;;;;;;5057574;28;20123;-39
2023/03/03 12:57:20;;;;;;;25.05;13.70;;;7.80;99.90;;;;;;5041238;28;20633;-39
2023/03/03 13:00:13;;;;;;;22.42;13.52;;;7.90;99.90;;;;;;5050875;28;20053;-40
2023/03/03 13:02:39;;;;;;;24.15;14.07;;;8.10;99.90;;;;;;5050961;28;20017;-39
2023/03/03 13:05:23;;;;;;;26.25;14.52;;;7.60;99.90;;;;;;5050504;28;20017;-40